createdAt,value
2023-02-09T00:00:13.635Z,102754.41
2023-02-09T00:02:44.146Z,102744.78
2023-02-09T00:05:14.603Z,102749.97
2023-02-09T00:07:46.098Z,102749.72
2023-02-09T00:10:16.425Z,102751.94
2023-02-09T00:12:58.991Z,102755.28
2023-02-09T00:15:31.902Z,102752.81
2023-02-09T00:18:02.493Z,102752.19
2023-02-09T00:20:35.268Z,102752.19
2023-02-09T00:23:05.576Z,102747.00
2023-02-09T00:25:35.797Z,102739.03
2023-02-09T00:28:06.546Z,102735.63
2023-02-09T00:30:39.969Z,102748.41
2023-02-09T00:33:10.241Z,102739.56
2023-02-09T00:35:42.734Z,102703.22
2023-02-09T00:38:13.388Z,102740.88
2023-02-09T00:40:44.699Z,102741.50
2023-02-09T00:43:15.193Z,102745.94
2023-02-09T00:45:48.254Z,102737.59
2023-02-09T00:48:18.394Z,102725.25
2023-02-09T00:50:48.819Z,102723.03
2023-02-09T00:53:19.392Z,102729.25
2023-02-09T00:55:50.224Z,102724.72
2023-02-09T00:58:20.543Z,102726.91
2023-02-09T01:00:54.405Z,102716.50
2023-02-09T01:03:25.177Z,102714.41
2023-02-09T01:05:57.228Z,102713.00
2023-02-09T01:08:27.892Z,102705.69
2023-02-09T01:10:58.355Z,102701.44
2023-02-09T01:13:29.313Z,102701.81
2023-02-09T01:16:02.538Z,102707.41
2023-02-09T01:18:32.919Z,102693.88
2023-02-09T01:21:05.446Z,102701.94
2023-02-09T01:23:35.523Z,102695.44
2023-02-09T01:26:06.492Z,102693.88
2023-02-09T01:28:38.301Z,102690.63
2023-02-09T01:31:21.481Z,102689.44
2023-02-09T01:33:53.869Z,102687.22
2023-02-09T01:36:24.441Z,102689.56
2023-02-09T01:38:56.480Z,102685.28
2023-02-09T01:41:27.282Z,102686.84
2023-02-09T01:43:59.667Z,102689.06
2023-02-09T01:46:33.974Z,102678.94
2023-02-09T01:49:08.071Z,102684.50
2023-02-09T01:51:39.808Z,102680.22
2023-02-09T01:54:12.080Z,102672.81
2023-02-09T01:56:43.814Z,102672.81
2023-02-09T01:59:15.855Z,102659.91
2023-02-09T02:01:49.169Z,102659.28
2023-02-09T02:04:20.056Z,102651.22
2023-02-09T02:06:50.781Z,102643.53
2023-02-09T02:09:24.312Z,102632.50
2023-02-09T02:11:54.797Z,102630.41
2023-02-09T02:14:32.311Z,102626.13
2023-02-09T02:17:09.624Z,102628.59
2023-02-09T02:19:52.797Z,102618.44
2023-02-09T02:22:38.377Z,102623.66
2023-02-09T02:25:24.135Z,102613.09
2023-02-09T02:28:00.685Z,102622.34
2023-02-09T02:30:41.600Z,102614.28
2023-02-09T02:33:29.765Z,102614.03
2023-02-09T02:36:08.402Z,102605.69
2023-02-09T02:38:44.025Z,102610.13
2023-02-09T02:41:17.504Z,102612.72
2023-02-09T02:43:52.542Z,102609.06
2023-02-09T02:46:29.380Z,102605.31
2023-02-09T02:49:03.894Z,102602.22
2023-02-09T02:51:38.684Z,102604.69
2023-02-09T02:54:12.587Z,102602.22
2023-02-09T02:56:45.103Z,102601.91
2023-02-09T02:59:20.231Z,102604.13
2023-02-09T03:01:55.685Z,102598.28
2023-02-09T03:04:27.301Z,102595.81
2023-02-09T03:07:00.200Z,102595.81
2023-02-09T03:09:30.456Z,102600.00
2023-02-09T03:12:03.522Z,102595.06
2023-02-09T03:14:42.681Z,102590.63
2023-02-09T03:17:20.713Z,102589.31
2023-02-09T03:19:54.073Z,102581.00
2023-02-09T03:22:32.090Z,102583.63
2023-02-09T03:25:05.450Z,102598.44
2023-02-09T03:27:38.114Z,102592.59
2023-02-09T03:30:09.142Z,102589.19
2023-02-09T03:32:41.053Z,102592.03
2023-02-09T03:35:12.676Z,102594.13
2023-02-09T03:37:45.574Z,102592.59
2023-02-09T03:40:19.426Z,102588.69
2023-02-09T03:42:49.596Z,102594.25
2023-02-09T03:45:20.087Z,102583.75
2023-02-09T03:47:50.508Z,102579.06
2023-02-09T03:50:20.876Z,102578.28
2023-02-09T03:52:53.661Z,102579.69
2023-02-09T03:55:24.039Z,102569.19
2023-02-09T03:57:54.576Z,102571.66
2023-02-09T04:00:25.322Z,102566.97
2023-02-09T04:02:56.418Z,102567.63
2023-02-09T04:05:26.936Z,102562.81
2023-02-09T04:08:00.669Z,102562.03
2023-02-09T04:10:31.616Z,102562.28
2023-02-09T04:13:01.795Z,102559.31
2023-02-09T04:15:32.192Z,102555.00
2023-02-09T04:18:02.365Z,102552.03
2023-02-09T04:20:32.638Z,102549.03
2023-02-09T04:23:05.488Z,102555.28
2023-02-09T04:25:35.734Z,102551.63
2023-02-09T04:28:06.098Z,102549.03
2023-02-09T04:30:36.376Z,102539.44
2023-02-09T04:33:06.680Z,102540.19
2023-02-09T04:35:36.738Z,102542.41
2023-02-09T04:38:09.458Z,102545.28
2023-02-09T04:40:39.804Z,102546.28
2023-02-09T04:43:10.405Z,102543.06
2023-02-09T04:45:41.179Z,102535.78
2023-02-09T04:48:14.230Z,102538.50
2023-02-09T04:50:45.103Z,102537.47
2023-02-09T04:53:18.455Z,102535.53
2023-02-09T04:55:49.663Z,102524.34
2023-02-09T04:58:34.047Z,102527.06
2023-02-09T05:01:04.614Z,102525.53
2023-02-09T05:03:35.281Z,102518.13
2023-02-09T05:06:07.258Z,102515.78
2023-02-09T05:08:40.128Z,102511.84
2023-02-09T05:11:10.360Z,102515.38
2023-02-09T05:13:40.555Z,102519.00
2023-02-09T05:16:11.756Z,102517.97
2023-02-09T05:18:42.036Z,102520.97
2023-02-09T05:21:12.301Z,102510.72
2023-02-09T05:23:45.100Z,102519.94
2023-02-09T05:26:15.272Z,102524.19
2023-02-09T05:28:45.576Z,102521.88
2023-02-09T05:31:16.674Z,102517.06
2023-02-09T05:33:47.046Z,102512.53
2023-02-09T05:36:17.491Z,102501.72
2023-02-09T05:38:50.141Z,102499.66
2023-02-09T05:41:32.396Z,102499.00
2023-02-09T05:44:02.549Z,102503.44
2023-02-09T05:46:33.164Z,102509.25
2023-02-09T05:49:03.381Z,102497.84
2023-02-09T05:51:33.598Z,102499.91
2023-02-09T05:54:06.560Z,102495.91
2023-02-09T05:56:38.162Z,102491.22
2023-02-09T05:59:08.407Z,102488.09
2023-02-09T06:01:43.023Z,102493.28
2023-02-09T06:04:14.048Z,102496.91
2023-02-09T06:06:50.757Z,102510.16
2023-02-09T06:09:29.089Z,102502.50
2023-02-09T06:11:59.262Z,102504.72
2023-02-09T06:14:29.486Z,102505.91
2023-02-09T06:16:59.758Z,102506.53
2023-02-09T06:19:30.347Z,102513.03
2023-02-09T06:22:01.038Z,102517.97
2023-02-09T06:24:33.811Z,102524.72
2023-02-09T06:27:03.986Z,102527.84
2023-02-09T06:29:34.246Z,102534.34
2023-02-09T06:32:04.396Z,102542.66
2023-02-09T06:34:34.539Z,102554.88
2023-02-09T06:37:04.637Z,102546.41
2023-02-09T06:39:37.536Z,102553.44
2023-02-09T06:42:07.636Z,102558.25
2023-02-09T06:44:37.808Z,102547.09
2023-02-09T06:47:08.073Z,102541.22
2023-02-09T06:49:38.325Z,102532.00
2023-02-09T06:52:08.673Z,102516.03
2023-02-09T06:54:41.821Z,102514.19
2023-02-09T06:57:12.704Z,102523.19
2023-02-09T06:59:42.947Z,102527.34
2023-02-09T07:02:13.127Z,102529.94
2023-02-09T07:04:43.298Z,102520.97
2023-02-09T07:07:13.517Z,102536.03
2023-02-09T07:09:46.192Z,102546.03
2023-02-09T07:12:16.286Z,102541.22
2023-02-09T07:14:46.565Z,102550.59
2023-02-09T07:17:16.766Z,102557.88
2023-02-09T07:19:47.048Z,102562.28
2023-02-09T07:22:17.183Z,102554.59
2023-02-09T07:24:49.846Z,102552.00
2023-02-09T07:27:19.976Z,102558.72
2023-02-09T07:29:50.238Z,102558.09
2023-02-09T07:32:22.848Z,102554.81
2023-02-09T07:34:53.068Z,102552.06
2023-02-09T07:37:23.196Z,102560.38
2023-02-09T07:39:55.947Z,102555.25
2023-02-09T07:42:26.299Z,102562.38
2023-02-09T07:45:03.524Z,102559.63
2023-02-09T07:47:33.586Z,102552.31
2023-02-09T07:50:04.077Z,102558.28
2023-02-09T07:52:34.379Z,102562.41
2023-02-09T07:55:07.499Z,102560.19
2023-02-09T07:57:37.501Z,102552.38
2023-02-09T08:00:08.285Z,102552.00
2023-02-09T08:02:46.280Z,102549.50
2023-02-09T08:05:19.937Z,102498.88
2023-02-09T08:07:50.152Z,102543.69
2023-02-09T08:10:23.253Z,102541.56
2023-02-09T08:13:05.621Z,102533.34
2023-02-09T08:15:40.246Z,102530.88
2023-02-09T08:18:13.166Z,102527.22
2023-02-09T08:20:43.513Z,102527.47
2023-02-09T08:23:15.957Z,102524.84
2023-02-09T08:25:51.857Z,102531.97
2023-02-09T08:28:31.887Z,102532.97
2023-02-09T08:31:08.545Z,102527.81
2023-02-09T08:33:38.721Z,102518.94
2023-02-09T08:36:09.206Z,102532.47
2023-02-09T08:38:39.339Z,102537.25
2023-02-09T08:41:14.051Z,102476.34
2023-02-09T08:43:44.325Z,102537.59
2023-02-09T08:46:15.171Z,102537.44
2023-02-09T08:48:46.172Z,102534.16
2023-02-09T08:51:17.765Z,102548.81
2023-02-09T08:53:52.584Z,102546.69
2023-02-09T08:56:25.769Z,102549.81
2023-02-09T08:58:55.810Z,102545.63
2023-02-09T09:01:25.957Z,102550.50
2023-02-09T09:03:56.307Z,102547.41
2023-02-09T09:06:27.137Z,102545.03
2023-02-09T09:08:57.377Z,102539.41
2023-02-09T09:11:30.166Z,102550.31
2023-02-09T09:14:00.838Z,102551.94
2023-02-09T09:16:30.991Z,102562.53
2023-02-09T09:19:01.106Z,102562.44
2023-02-09T09:21:31.256Z,102557.81
2023-02-09T09:24:01.409Z,102559.44
2023-02-09T09:26:35.643Z,102557.53
2023-02-09T09:29:05.864Z,102564.56
2023-02-09T09:31:38.134Z,102559.16
2023-02-09T09:34:08.369Z,102559.22
2023-02-09T09:36:38.489Z,102567.88
2023-02-09T09:39:08.509Z,102567.06
2023-02-09T09:41:41.227Z,102566.25
2023-02-09T09:44:15.298Z,102572.03
2023-02-09T09:46:46.942Z,102563.31
2023-02-09T09:49:27.022Z,102567.41
2023-02-09T09:51:59.300Z,102569.69
2023-02-09T09:54:32.034Z,102564.09
2023-02-09T09:57:04.926Z,102567.03
2023-02-09T09:59:38.779Z,102568.66
2023-02-09T10:02:19.765Z,102564.88
2023-02-09T10:04:50.809Z,102562.47
2023-02-09T10:07:23.607Z,102561.38
2023-02-09T10:09:55.740Z,102565.06
2023-02-09T10:12:35.096Z,102569.63
2023-02-09T10:15:19.161Z,102561.97
2023-02-09T10:17:49.278Z,102568.41
2023-02-09T10:20:19.362Z,102569.53
2023-02-09T10:22:54.278Z,102561.13
2023-02-09T10:25:45.426Z,102565.25
2023-02-09T10:28:24.087Z,102566.81
2023-02-09T10:30:54.899Z,102572.50
2023-02-09T10:33:25.068Z,102567.59
2023-02-09T10:35:56.394Z,102557.28
2023-02-09T10:38:33.025Z,102559.56
2023-02-09T10:41:04.396Z,102564.53
2023-02-09T10:43:37.540Z,102558.69
2023-02-09T10:46:13.982Z,102566.66
2023-02-09T10:48:45.355Z,102558.31
2023-02-09T10:51:17.574Z,102548.16
2023-02-09T10:54:00.792Z,102549.31
2023-02-09T10:56:36.410Z,102541.66
2023-02-09T10:59:18.043Z,102544.22
2023-02-09T11:01:53.953Z,102539.25
2023-02-09T11:04:25.910Z,102537.22
2023-02-09T11:06:58.152Z,102532.97
2023-02-09T11:09:30.978Z,102533.19
2023-02-09T11:12:01.201Z,102522.56
2023-02-09T11:14:34.413Z,102508.31
2023-02-09T11:17:17.458Z,102501.31
2023-02-09T11:19:59.745Z,102521.47
2023-02-09T11:22:46.250Z,102508.56
2023-02-09T11:25:21.209Z,102513.34
2023-02-09T11:28:00.259Z,102515.59
2023-02-09T11:30:49.863Z,102489.59
2023-02-09T11:33:24.838Z,102481.88
2023-02-09T11:36:03.313Z,102484.63
2023-02-09T11:38:38.384Z,102469.88
2023-02-09T11:41:32.089Z,102476.66
2023-02-09T11:44:04.089Z,102484.84
2023-02-09T11:46:37.319Z,102475.09
2023-02-09T11:49:10.095Z,102466.06
2023-02-09T11:51:43.342Z,102479.41
2023-02-09T11:54:17.527Z,102484.16
2023-02-09T11:56:49.794Z,102485.97
2023-02-09T11:59:22.742Z,102492.09
2023-02-09T12:02:00.101Z,102482.56
2023-02-09T12:04:34.755Z,102490.03
2023-02-09T12:07:07.837Z,102478.28
2023-02-09T12:09:47.628Z,102489.81
2023-02-09T12:12:25.975Z,102488.47
2023-02-09T12:15:03.136Z,102484.41
2023-02-09T12:17:42.594Z,102489.16
2023-02-09T12:20:24.014Z,102506.59
2023-02-09T12:22:56.429Z,102495.72
2023-02-09T12:25:35.808Z,102501.63
2023-02-09T12:28:17.586Z,102506.59
2023-02-09T12:31:02.934Z,102509.53
2023-02-09T12:33:36.780Z,102507.03
2023-02-09T12:36:08.620Z,102510.22
2023-02-09T12:38:52.338Z,102488.50
2023-02-09T12:41:25.771Z,102486.22
2023-02-09T12:44:07.940Z,102486.22
2023-02-09T12:46:52.876Z,102476.69
2023-02-09T12:49:34.136Z,102474.44
2023-02-09T12:52:18.718Z,102471.03
2023-02-09T12:54:50.174Z,102468.75
2023-02-09T12:57:35.331Z,102478.25
2023-02-09T13:00:32.629Z,102470.31
2023-02-09T13:03:09.428Z,102478.00
2023-02-09T13:05:44.807Z,102473.69
2023-02-09T13:08:18.925Z,102480.00
2023-02-09T13:10:52.263Z,102477.53
2023-02-09T13:13:26.093Z,102469.59
2023-02-09T13:16:07.050Z,102455.97
2023-02-09T13:18:44.432Z,102458.91
2023-02-09T13:21:21.425Z,102456.84
2023-02-09T13:23:56.901Z,102450.28
2023-02-09T13:26:28.586Z,102461.16
2023-02-09T13:29:20.813Z,102457.53
2023-02-09T13:31:58.259Z,102464.66
2023-02-09T13:34:32.812Z,102457.00
2023-02-09T13:37:11.428Z,102457.00
2023-02-09T13:39:44.254Z,102469.28
2023-02-09T13:42:20.455Z,102461.16
2023-02-09T13:44:53.222Z,102461.16
2023-02-09T13:47:23.842Z,102445.25
2023-02-09T13:50:01.655Z,102454.09
2023-02-09T13:52:39.283Z,102446.63
2023-02-09T13:55:14.026Z,102446.66
2023-02-09T13:57:45.330Z,102446.19
2023-02-09T14:00:23.652Z,102445.03
2023-02-09T14:02:56.101Z,102436.22
2023-02-09T14:05:34.673Z,102430.31
2023-02-09T14:08:07.659Z,102419.38
2023-02-09T14:10:37.860Z,102426.22
2023-02-09T14:13:09.818Z,102429.41
2023-02-09T14:15:54.780Z,102430.34
2023-02-09T14:18:26.424Z,102427.66
2023-02-09T14:21:03.179Z,102433.97
2023-02-09T14:23:35.785Z,102417.66
2023-02-09T14:26:07.123Z,102415.41
2023-02-09T14:28:39.341Z,102413.59
2023-02-09T14:31:09.972Z,102397.72
2023-02-09T14:33:40.402Z,102407.72
2023-02-09T14:36:23.432Z,102406.31
2023-02-09T14:39:06.475Z,102411.06
2023-02-09T14:41:37.228Z,102403.56
2023-02-09T14:44:18.732Z,102402.91
2023-02-09T14:46:50.970Z,102413.56
2023-02-09T14:49:21.628Z,102401.56
2023-02-09T14:51:53.139Z,102385.06
2023-02-09T14:54:29.447Z,102403.13
2023-02-09T14:57:01.050Z,102401.56
2023-02-09T14:59:31.291Z,102397.72
2023-02-09T15:02:01.430Z,102402.28
2023-02-09T15:04:31.653Z,102363.84
2023-02-09T15:07:04.663Z,102415.47
2023-02-09T15:09:39.224Z,102407.72
2023-02-09T15:12:10.656Z,102408.22
2023-02-09T15:14:43.196Z,102409.56
2023-02-09T15:17:18.329Z,102398.25
2023-02-09T15:19:49.108Z,102411.84
2023-02-09T15:22:20.163Z,102412.78
2023-02-09T15:24:54.694Z,102409.38
2023-02-09T15:27:29.117Z,102410.53
2023-02-09T15:30:01.801Z,102417.31
2023-02-09T15:32:34.112Z,102414.19
2023-02-09T15:35:05.243Z,102424.59
2023-02-09T15:37:37.278Z,102426.19
2023-02-09T15:40:39.361Z,102419.63
2023-02-09T15:43:37.984Z,102420.28
2023-02-09T15:46:21.114Z,102433.88
2023-02-09T15:48:51.505Z,102432.75
2023-02-09T15:51:21.750Z,102430.97
2023-02-09T15:53:52.028Z,102434.59
2023-02-09T15:56:24.949Z,102450.41
2023-02-09T15:58:58.906Z,102460.59
2023-02-09T16:01:33.923Z,102459.25
2023-02-09T16:04:13.997Z,102461.28
2023-02-09T16:06:47.249Z,102467.63
2023-02-09T16:09:20.729Z,102476.44
2023-02-09T16:11:53.495Z,102471.03
2023-02-09T16:14:26.787Z,102484.56
2023-02-09T16:16:59.664Z,102479.34
2023-02-09T16:19:29.851Z,102491.13
2023-02-09T16:22:03.059Z,102491.56
2023-02-09T16:24:36.095Z,102493.16
2023-02-09T16:27:13.855Z,102498.59
2023-02-09T16:29:44.133Z,102506.28
2023-02-09T16:32:18.626Z,102508.31
2023-02-09T16:34:48.926Z,102467.50
2023-02-09T16:37:20.287Z,102523.25
2023-02-09T16:39:50.520Z,102526.00
2023-02-09T16:42:25.498Z,102531.00
2023-02-09T16:44:56.804Z,102532.34
2023-02-09T16:47:28.082Z,102534.84
2023-02-09T16:50:01.029Z,102536.44
2023-02-09T16:52:31.473Z,102540.28
2023-02-09T16:55:02.690Z,102537.13
2023-02-09T16:57:35.886Z,102550.41
2023-02-09T17:00:07.162Z,102556.06
2023-02-09T17:02:40.106Z,102551.75
2023-02-09T17:05:18.156Z,102548.41
2023-02-09T17:07:54.955Z,102545.44
2023-02-09T17:10:26.758Z,102551.78
2023-02-09T17:13:01.808Z,102542.75
2023-02-09T17:15:34.155Z,102542.50
2023-02-09T17:18:06.604Z,102554.97
2023-02-09T17:20:39.774Z,102540.03
2023-02-09T17:23:10.260Z,102544.75
2023-02-09T17:25:40.434Z,102543.16
2023-02-09T17:28:13.441Z,102544.56
2023-02-09T17:30:44.410Z,102541.19
2023-02-09T17:33:19.467Z,102547.53
2023-02-09T17:36:22.577Z,102555.72
2023-02-09T17:38:41.116Z,102554.16
2023-02-09T17:41:15.521Z,102552.59
2023-02-09T17:43:49.252Z,102551.69
2023-02-09T17:46:21.123Z,102549.19
2023-02-09T17:48:51.586Z,102544.00
2023-02-09T17:51:22.862Z,102549.19
2023-02-09T17:53:53.044Z,102555.09
2023-02-09T17:56:23.224Z,102561.66
2023-02-09T17:58:57.336Z,102569.56
2023-02-09T18:01:29.548Z,102569.13
2023-02-09T18:04:00.848Z,102570.97
2023-02-09T18:06:37.566Z,102573.88
2023-02-09T18:09:09.043Z,102575.69
2023-02-09T18:11:57.025Z,102578.19
2023-02-09T18:14:30.574Z,102581.38
2023-02-09T18:17:01.025Z,102587.28
2023-02-09T18:19:33.224Z,102579.31
2023-02-09T18:22:04.560Z,102579.78
2023-02-09T18:24:35.703Z,102587.94
2023-02-09T18:27:08.046Z,102583.16
2023-02-09T18:29:41.327Z,102587.28
2023-02-09T18:32:14.561Z,102578.44
2023-02-09T18:34:44.940Z,102583.66
2023-02-09T18:37:17.112Z,102584.09
2023-02-09T18:39:48.656Z,102586.78
2023-02-09T18:42:19.334Z,102584.78
2023-02-09T18:44:52.160Z,102586.84
2023-02-09T18:47:23.618Z,102587.06
2023-02-09T18:49:53.909Z,102585.44
2023-02-09T18:52:25.618Z,102583.66
2023-02-09T18:54:55.956Z,102590.91
2023-02-09T18:57:26.435Z,102590.47
2023-02-09T18:59:59.317Z,102586.84
2023-02-09T19:02:29.504Z,102588.63
2023-02-09T19:07:09.745Z,102585.00
2023-02-09T19:09:40.711Z,102594.09
2023-02-09T19:12:20.862Z,102596.09
2023-02-09T19:14:52.573Z,102590.03
2023-02-09T19:17:24.551Z,102598.59
2023-02-09T19:19:57.032Z,102592.03
2023-02-09T19:22:30.326Z,102598.59
2023-02-09T19:25:04.848Z,102587.06
2023-02-09T19:28:01.245Z,102591.59
2023-02-09T19:30:32.956Z,102598.38
2023-02-09T19:33:17.158Z,102593.88
2023-02-09T19:35:49.673Z,102593.88
2023-02-09T19:38:24.276Z,102599.06
2023-02-09T19:41:09.813Z,102594.31
2023-02-09T19:43:51.003Z,102592.94
2023-02-09T19:46:23.560Z,102591.81
2023-02-09T19:48:55.483Z,102598.16
2023-02-09T19:51:41.456Z,102563.69
2023-02-09T19:54:15.286Z,102586.84
2023-02-09T19:57:08.681Z,102599.31
2023-02-09T19:59:40.188Z,102598.38
2023-02-09T20:02:14.724Z,102600.19
2023-02-09T20:04:46.182Z,102587.50
2023-02-09T20:07:17.818Z,102601.09
2023-02-09T20:09:53.036Z,102585.66
2023-02-09T20:12:23.842Z,102596.97
2023-02-09T20:14:58.592Z,102600.38
2023-02-09T20:17:30.308Z,102584.94
2023-02-09T20:20:00.890Z,102591.53
2023-02-09T20:22:34.983Z,102568.59
2023-02-09T20:25:10.136Z,102546.81
2023-02-09T20:27:41.115Z,102596.72
2023-02-09T20:30:13.137Z,102601.69
2023-02-09T20:32:46.119Z,102598.53
2023-02-09T20:35:25.600Z,102593.78
2023-02-09T20:37:59.690Z,102594.47
2023-02-09T20:40:36.553Z,102585.19
2023-02-09T20:43:19.749Z,102593.53
2023-02-09T20:46:03.305Z,102595.59
2023-02-09T20:48:36.027Z,102589.47
2023-02-09T20:51:06.930Z,102584.50
2023-02-09T20:53:40.039Z,102590.19
2023-02-09T20:56:16.362Z,102587.69
2023-02-09T20:58:49.199Z,102580.88
2023-02-09T21:01:23.380Z,102573.41
2023-02-09T21:03:54.576Z,102591.34
2023-02-09T21:06:25.531Z,102585.66
2023-02-09T21:08:57.855Z,102593.38
2023-02-09T21:11:31.567Z,102599.72
2023-02-09T21:14:05.076Z,102581.38
2023-02-09T21:16:47.831Z,102593.38
2023-02-09T21:19:18.645Z,102496.13
2023-02-09T21:21:49.281Z,102595.88
2023-02-09T21:24:21.276Z,102589.75
2023-02-09T21:27:04.158Z,102597.25
2023-02-09T21:29:42.748Z,102590.63
2023-02-09T21:32:14.746Z,102587.47
2023-02-09T21:34:49.286Z,102582.72
2023-02-09T21:37:19.886Z,102597.25
2023-02-09T21:40:02.604Z,102601.31
2023-02-09T21:42:47.627Z,102608.78
2023-02-09T21:45:18.611Z,102612.19
2023-02-09T21:47:49.634Z,102603.16
2023-02-09T21:50:21.176Z,102609.91
2023-02-09T21:52:51.949Z,102618.06
2023-02-09T21:55:22.774Z,102620.31
2023-02-09T21:57:55.753Z,102626.44
2023-02-09T22:00:26.800Z,102602.16
2023-02-09T22:02:59.570Z,102627.13
2023-02-09T22:05:30.500Z,102624.16
2023-02-09T22:08:08.517Z,102631.00
2023-02-09T22:10:40.634Z,102628.50
2023-02-09T22:13:13.749Z,102635.28
2023-02-09T22:15:47.797Z,102634.84
2023-02-09T22:18:18.198Z,102627.34
2023-02-09T22:20:49.330Z,102637.03
2023-02-09T22:23:20.456Z,102637.97
2023-02-09T22:25:50.887Z,102646.13
2023-02-09T22:28:24.075Z,102650.84
2023-02-09T22:30:54.604Z,102651.97
2023-02-09T22:33:26.393Z,102652.44
2023-02-09T22:35:57.306Z,102648.34
2023-02-09T22:38:32.221Z,102644.47
2023-02-09T22:41:08.070Z,102663.78
2023-02-09T22:43:41.325Z,102666.25
2023-02-09T22:46:11.952Z,102673.25
2023-02-09T22:48:42.414Z,102678.25
2023-02-09T22:51:21.185Z,102683.22
2023-02-09T22:53:51.671Z,102689.56
2023-02-09T22:56:26.379Z,102685.94
2023-02-09T22:59:00.929Z,102685.47
2023-02-09T23:01:32.456Z,102687.72
2023-02-09T23:04:03.596Z,102699.06
2023-02-09T23:06:36.400Z,102696.81
2023-02-09T23:09:08.958Z,102695.44
2023-02-09T23:11:39.861Z,102690.00
2023-02-09T23:14:13.660Z,102698.59
2023-02-09T23:16:45.716Z,102693.63
2023-02-09T23:19:17.928Z,102696.31
2023-02-09T23:21:50.612Z,102698.13
2023-02-09T23:24:24.482Z,102700.19
2023-02-09T23:26:55.005Z,102705.38
2023-02-09T23:29:28.262Z,102697.91
2023-02-09T23:31:58.991Z,102703.09
2023-02-09T23:34:30.041Z,102701.09
2023-02-09T23:37:18.769Z,102703.09
2023-02-09T23:39:49.447Z,102707.63
2023-02-09T23:42:19.882Z,102704.00
2023-02-09T23:44:52.951Z,102714.38
2023-02-09T23:47:23.733Z,102718.44
2023-02-09T23:49:54.280Z,102725.03
2023-02-09T23:52:24.712Z,102730.03
2023-02-09T23:54:55.157Z,102721.19
2023-02-09T23:57:26.160Z,102735.19
